EJU43ZT LICJ-LIRN
Flight info
| Callsign | EJU43ZT |
|---|---|
| Flight time | N/A |
| Altitude | 30000 |
| Route | ROSAS6Q ROSAS DCT AMANO DCT DELER DCT SOR SOR1A |
| Aircraft | A320/M-SDE2E3FGHIJ1RWXYZ/LB1 |
Departure
| Time | 2026-04-27 09:35 |
|---|---|
| Airport | Falcone–Borsellino Airport (LICJ) |
Arrival
| Time | N/A |
|---|---|
| Airport | Naples International Airport (LIRN) |
| Time | Latitude | Longitude | Altitude | Speed | Heading |
|---|---|---|---|---|---|
| 2026-04-27 09:18 | 38.18491 | 13.10469 | 58 ft | 0 kts | 337° |
| 2026-04-27 09:26 | 38.18489 | 13.10469 | 65 ft | 1 kts | 337° |
| 2026-04-27 09:26 | 38.18474 | 13.10478 | 57 ft | 3 kts | 329° |
| 2026-04-27 09:27 | 38.18458 | 13.10492 | 57 ft | 3 kts | 320° |
| 2026-04-27 09:27 | 38.18442 | 13.10509 | 57 ft | 3 kts | 330° |
| 2026-04-27 09:27 | 38.18437 | 13.10518 | 60 ft | 3 kts | 41° |
| 2026-04-27 09:27 | 38.18440 | 13.10527 | 62 ft | 0 kts | 62° |
| 2026-04-27 09:28 | 38.18440 | 13.10526 | 62 ft | 0 kts | 62° |
| 2026-04-27 09:30 | 38.18445 | 13.10538 | 60 ft | 5 kts | 63° |
| 2026-04-27 09:30 | 38.18457 | 13.10572 | 62 ft | 5 kts | 66° |
| 2026-04-27 09:30 | 38.18477 | 13.10630 | 63 ft | 8 kts | 68° |
| 2026-04-27 09:30 | 38.18495 | 13.10688 | 57 ft | 7 kts | 68° |
| 2026-04-27 09:31 | 38.18506 | 13.10740 | 64 ft | 5 kts | 86° |
| 2026-04-27 09:31 | 38.18497 | 13.10779 | 65 ft | 5 kts | 107° |
| 2026-04-27 09:31 | 38.18476 | 13.10857 | 61 ft | 13 kts | 109° |
| 2026-04-27 09:31 | 38.18429 | 13.10972 | 60 ft | 16 kts | 101° |
| 2026-04-27 09:32 | 38.18458 | 13.11093 | 61 ft | 14 kts | 68° |
| 2026-04-27 09:32 | 38.18493 | 13.11202 | 59 ft | 13 kts | 67° |
| 2026-04-27 09:32 | 38.18534 | 13.11323 | 64 ft | 15 kts | 65° |
| 2026-04-27 09:32 | 38.18576 | 13.11443 | 62 ft | 14 kts | 66° |
| 2026-04-27 09:33 | 38.18614 | 13.11565 | 63 ft | 16 kts | 74° |
| 2026-04-27 09:33 | 38.18607 | 13.11697 | 60 ft | 14 kts | 101° |
| 2026-04-27 09:33 | 38.18591 | 13.11822 | 63 ft | 15 kts | 98° |
| 2026-04-27 09:33 | 38.18531 | 13.11882 | 66 ft | 9 kts | 196° |
| 2026-04-27 09:34 | 38.18503 | 13.11838 | 69 ft | 0 kts | 244° |
| 2026-04-27 09:34 | 38.18484 | 13.11785 | 68 ft | 29 kts | 246° |
| 2026-04-27 09:34 | 38.18302 | 13.11243 | 64 ft | 101 kts | 247° |
| 2026-04-27 09:34 | 38.17952 | 13.10199 | 63 ft | 153 kts | 247° |
| 2026-04-27 09:35 | 38.17508 | 13.08893 | 610 ft | 157 kts | 247° |
| 2026-04-27 09:35 | 38.17068 | 13.07641 | 1349 ft | 157 kts | 246° |
| 2026-04-27 09:35 | 38.16610 | 13.06289 | 1757 ft | 177 kts | 246° |
| 2026-04-27 09:35 | 38.16100 | 13.04761 | 2058 ft | 199 kts | 247° |
| 2026-04-27 09:36 | 38.15594 | 13.03011 | 2371 ft | 224 kts | 257° |
| 2026-04-27 09:36 | 38.15462 | 13.00940 | 2784 ft | 248 kts | 275° |
| 2026-04-27 09:36 | 38.15890 | 12.98756 | 3441 ft | 261 kts | 294° |
| 2026-04-27 09:36 | 38.16894 | 12.96808 | 4289 ft | 267 kts | 313° |
| 2026-04-27 09:37 | 38.18377 | 12.95360 | 5185 ft | 272 kts | 330° |
| 2026-04-27 09:37 | 38.19956 | 12.94034 | 6089 ft | 273 kts | 320° |
| 2026-04-27 09:37 | 38.21319 | 12.92341 | 6999 ft | 275 kts | 309° |
| 2026-04-27 09:37 | 38.22416 | 12.90339 | 7845 ft | 278 kts | 303° |
| 2026-04-27 09:38 | 38.23476 | 12.88271 | 8721 ft | 280 kts | 302° |
| 2026-04-27 09:38 | 38.24544 | 12.86185 | 9571 ft | 283 kts | 302° |
| 2026-04-27 09:38 | 38.25624 | 12.84072 | 10382 ft | 287 kts | 302° |
| 2026-04-27 09:38 | 38.26750 | 12.81863 | 10710 ft | 309 kts | 302° |
| 2026-04-27 09:39 | 38.28103 | 12.79637 | 11123 ft | 325 kts | 314° |
| 2026-04-27 09:39 | 38.29856 | 12.77779 | 11826 ft | 331 kts | 326° |